sensor_id;sensor_type;location;lat;lon;timestamp;P1;durP1;ratioP1;P2;durP2;ratioP2
55461;SDS011;41327;45.102;20.624;2022-12-01T00:02:01;2.13;;;0.85;;
55461;SDS011;41327;45.102;20.624;2022-12-01T00:04:27;1.77;;;0.82;;
55461;SDS011;41327;45.102;20.624;2022-12-01T00:06:52;1.27;;;0.95;;
55461;SDS011;41327;45.102;20.624;2022-12-01T00:09:18;1.10;;;0.68;;
55461;SDS011;41327;45.102;20.624;2022-12-01T00:12:02;3.00;;;1.10;;
55461;SDS011;41327;45.102;20.624;2022-12-01T00:14:28;0.93;;;0.73;;
55461;SDS011;41327;45.102;20.624;2022-12-01T00:16:53;0.70;;;0.55;;
55461;SDS011;41327;45.102;20.624;2022-12-01T00:19:19;1.20;;;0.70;;
55461;SDS011;41327;45.102;20.624;2022-12-01T00:21:44;0.75;;;0.70;;
55461;SDS011;41327;45.102;20.624;2022-12-01T00:24:12;1.50;;;0.80;;
55461;SDS011;41327;45.102;20.624;2022-12-01T00:26:37;1.60;;;0.75;;
55461;SDS011;41327;45.102;20.624;2022-12-01T00:29:03;2.13;;;0.95;;
55461;SDS011;41327;45.102;20.624;2022-12-01T00:31:28;1.65;;;0.90;;
55461;SDS011;41327;45.102;20.624;2022-12-01T00:33:54;1.10;;;0.90;;
55461;SDS011;41327;45.102;20.624;2022-12-01T00:36:20;0.77;;;0.68;;
55461;SDS011;41327;45.102;20.624;2022-12-01T00:38:46;2.08;;;0.80;;
55461;SDS011;41327;45.102;20.624;2022-12-01T00:41:12;0.95;;;0.57;;
55461;SDS011;41327;45.102;20.624;2022-12-01T00:43:37;1.13;;;0.70;;
55461;SDS011;41327;45.102;20.624;2022-12-01T00:46:04;1.00;;;0.73;;
55461;SDS011;41327;45.102;20.624;2022-12-01T00:48:29;0.80;;;0.60;;
55461;SDS011;41327;45.102;20.624;2022-12-01T00:50:55;1.38;;;0.50;;
55461;SDS011;41327;45.102;20.624;2022-12-01T00:53:21;1.13;;;0.73;;
55461;SDS011;41327;45.102;20.624;2022-12-01T00:55:47;1.00;;;0.60;;
55461;SDS011;41327;45.102;20.624;2022-12-01T00:58:12;0.85;;;0.68;;
55461;SDS011;41327;45.102;20.624;2022-12-01T01:00:38;0.90;;;0.55;;
55461;SDS011;41327;45.102;20.624;2022-12-01T01:03:04;1.15;;;0.90;;
55461;SDS011;41327;45.102;20.624;2022-12-01T01:05:33;1.63;;;0.88;;
55461;SDS011;41327;45.102;20.624;2022-12-01T01:08:00;1.73;;;0.70;;
55461;SDS011;41327;45.102;20.624;2022-12-01T01:10:25;1.67;;;0.90;;
55461;SDS011;41327;45.102;20.624;2022-12-01T01:12:51;3.13;;;0.90;;
55461;SDS011;41327;45.102;20.624;2022-12-01T01:15:16;0.85;;;0.70;;
55461;SDS011;41327;45.102;20.624;2022-12-01T01:17:42;0.93;;;0.60;;
55461;SDS011;41327;45.102;20.624;2022-12-01T01:20:07;1.95;;;0.85;;
55461;SDS011;41327;45.102;20.624;2022-12-01T01:22:34;1.20;;;0.70;;
55461;SDS011;41327;45.102;20.624;2022-12-01T01:24:59;0.85;;;0.73;;
55461;SDS011;41327;45.102;20.624;2022-12-01T01:27:25;0.85;;;0.70;;
55461;SDS011;41327;45.102;20.624;2022-12-01T01:29:50;1.15;;;0.82;;
55461;SDS011;41327;45.102;20.624;2022-12-01T01:32:16;1.23;;;0.80;;
55461;SDS011;41327;45.102;20.624;2022-12-01T01:34:41;1.63;;;0.90;;
55461;SDS011;41327;45.102;20.624;2022-12-01T01:37:07;0.85;;;0.75;;
55461;SDS011;41327;45.102;20.624;2022-12-01T01:39:32;0.90;;;0.60;;
55461;SDS011;41327;45.102;20.624;2022-12-01T01:41:58;1.35;;;0.65;;
55461;SDS011;41327;45.102;20.624;2022-12-01T01:47:13;1.15;;;0.85;;
55461;SDS011;41327;45.102;20.624;2022-12-01T01:49:39;0.70;;;0.52;;
55461;SDS011;41327;45.102;20.624;2022-12-01T01:52:05;1.58;;;0.85;;
55461;SDS011;41327;45.102;20.624;2022-12-01T01:54:32;1.02;;;0.73;;
55461;SDS011;41327;45.102;20.624;2022-12-01T01:57:00;1.30;;;0.80;;
55461;SDS011;41327;45.102;20.624;2022-12-01T01:59:27;1.42;;;0.90;;
55461;SDS011;41327;45.102;20.624;2022-12-01T02:02:02;2.17;;;1.00;;
55461;SDS011;41327;45.102;20.624;2022-12-01T02:04:31;0.75;;;0.60;;
55461;SDS011;41327;45.102;20.624;2022-12-01T02:06:59;3.38;;;0.75;;
55461;SDS011;41327;45.102;20.624;2022-12-01T02:09:24;1.58;;;1.17;;
55461;SDS011;41327;45.102;20.624;2022-12-01T02:14:47;1.13;;;0.65;;
55461;SDS011;41327;45.102;20.624;2022-12-01T02:17:19;1.15;;;0.70;;
55461;SDS011;41327;45.102;20.624;2022-12-01T02:25:23;1.20;;;0.88;;
55461;SDS011;41327;45.102;20.624;2022-12-01T02:34:16;0.82;;;0.65;;
55461;SDS011;41327;45.102;20.624;2022-12-01T02:36:50;1.08;;;0.82;;
55461;SDS011;41327;45.102;20.624;2022-12-01T02:39:26;1.55;;;0.93;;
55461;SDS011;41327;45.102;20.624;2022-12-01T02:42:03;1.10;;;0.65;;
55461;SDS011;41327;45.102;20.624;2022-12-01T02:44:37;1.92;;;0.80;;
55461;SDS011;41327;45.102;20.624;2022-12-01T02:49:35;0.90;;;0.70;;
55461;SDS011;41327;45.102;20.624;2022-12-01T02:52:07;1.85;;;1.02;;
55461;SDS011;41327;45.102;20.624;2022-12-01T02:54:34;1.73;;;1.30;;
55461;SDS011;41327;45.102;20.624;2022-12-01T02:57:00;1.95;;;0.77;;
55461;SDS011;41327;45.102;20.624;2022-12-01T02:59:26;1.92;;;1.17;;
55461;SDS011;41327;45.102;20.624;2022-12-01T03:09:45;4.95;;;2.08;;
55461;SDS011;41327;45.102;20.624;2022-12-01T03:17:23;2.38;;;1.48;;
55461;SDS011;41327;45.102;20.624;2022-12-01T03:19:57;2.80;;;1.80;;
55461;SDS011;41327;45.102;20.624;2022-12-01T03:22:35;3.08;;;1.60;;
55461;SDS011;41327;45.102;20.624;2022-12-01T03:25:04;1.65;;;1.00;;
55461;SDS011;41327;45.102;20.624;2022-12-01T03:27:32;1.48;;;0.90;;
55461;SDS011;41327;45.102;20.624;2022-12-01T03:30:00;2.78;;;1.25;;
55461;SDS011;41327;45.102;20.624;2022-12-01T03:32:28;1.67;;;1.08;;
55461;SDS011;41327;45.102;20.624;2022-12-01T03:37:44;3.90;;;1.67;;
55461;SDS011;41327;45.102;20.624;2022-12-01T03:40:29;2.58;;;1.52;;
55461;SDS011;41327;45.102;20.624;2022-12-01T03:42:59;3.25;;;2.20;;
55461;SDS011;41327;45.102;20.624;2022-12-01T03:45:30;4.80;;;2.47;;
55461;SDS011;41327;45.102;20.624;2022-12-01T03:47:58;4.65;;;3.00;;
55461;SDS011;41327;45.102;20.624;2022-12-01T03:50:25;6.85;;;4.28;;
55461;SDS011;41327;45.102;20.624;2022-12-01T03:52:59;7.53;;;3.78;;
55461;SDS011;41327;45.102;20.624;2022-12-01T03:55:38;9.07;;;4.20;;
55461;SDS011;41327;45.102;20.624;2022-12-01T04:00:54;7.20;;;3.90;;
55461;SDS011;41327;45.102;20.624;2022-12-01T04:03:24;7.15;;;4.25;;
55461;SDS011;41327;45.102;20.624;2022-12-01T04:05:50;7.43;;;4.45;;
55461;SDS011;41327;45.102;20.624;2022-12-01T04:08:16;7.82;;;4.65;;
55461;SDS011;41327;45.102;20.624;2022-12-01T04:10:42;11.85;;;6.80;;
55461;SDS011;41327;45.102;20.624;2022-12-01T04:13:07;12.75;;;7.05;;
55461;SDS011;41327;45.102;20.624;2022-12-01T04:15:40;14.60;;;7.47;;
55461;SDS011;41327;45.102;20.624;2022-12-01T04:18:06;14.73;;;8.73;;
55461;SDS011;41327;45.102;20.624;2022-12-01T04:20:31;19.00;;;10.05;;
55461;SDS011;41327;45.102;20.624;2022-12-01T04:22:57;20.25;;;10.73;;
55461;SDS011;41327;45.102;20.624;2022-12-01T04:25:23;18.55;;;10.90;;
55461;SDS011;41327;45.102;20.624;2022-12-01T04:27:49;21.20;;;11.75;;
55461;SDS011;41327;45.102;20.624;2022-12-01T04:30:15;24.83;;;11.15;;
55461;SDS011;41327;45.102;20.624;2022-12-01T04:32:41;22.52;;;10.40;;
55461;SDS011;41327;45.102;20.624;2022-12-01T04:35:08;20.02;;;10.45;;
55461;SDS011;41327;45.102;20.624;2022-12-01T04:37:34;23.38;;;11.20;;
55461;SDS011;41327;45.102;20.624;2022-12-01T04:40:00;18.70;;;10.73;;
55461;SDS011;41327;45.102;20.624;2022-12-01T04:42:27;21.08;;;11.48;;
55461;SDS011;41327;45.102;20.624;2022-12-01T04:44:52;20.27;;;11.20;;
55461;SDS011;41327;45.102;20.624;2022-12-01T04:47:18;21.48;;;11.55;;
55461;SDS011;41327;45.102;20.624;2022-12-01T04:49:44;21.13;;;11.13;;
55461;SDS011;41327;45.102;20.624;2022-12-01T04:52:10;21.40;;;11.65;;
55461;SDS011;41327;45.102;20.624;2022-12-01T04:54:35;23.48;;;12.15;;
55461;SDS011;41327;45.102;20.624;2022-12-01T04:57:01;23.83;;;11.48;;
55461;SDS011;41327;45.102;20.624;2022-12-01T04:59:26;17.10;;;10.27;;
55461;SDS011;41327;45.102;20.624;2022-12-01T05:01:52;20.33;;;11.35;;
55461;SDS011;41327;45.102;20.624;2022-12-01T05:04:18;21.80;;;10.70;;
55461;SDS011;41327;45.102;20.624;2022-12-01T05:06:43;19.23;;;10.30;;
55461;SDS011;41327;45.102;20.624;2022-12-01T05:09:11;19.90;;;11.30;;
55461;SDS011;41327;45.102;20.624;2022-12-01T05:11:37;20.42;;;10.70;;
55461;SDS011;41327;45.102;20.624;2022-12-01T05:14:05;18.25;;;10.48;;
55461;SDS011;41327;45.102;20.624;2022-12-01T05:16:31;21.25;;;11.15;;
55461;SDS011;41327;45.102;20.624;2022-12-01T05:18:58;22.10;;;11.20;;
55461;SDS011;41327;45.102;20.624;2022-12-01T05:21:44;32.33;;;14.45;;
55461;SDS011;41327;45.102;20.624;2022-12-01T05:24:11;44.45;;;17.42;;
55461;SDS011;41327;45.102;20.624;2022-12-01T05:26:39;77.28;;;24.08;;
55461;SDS011;41327;45.102;20.624;2022-12-01T05:29:05;52.67;;;21.10;;
55461;SDS011;41327;45.102;20.624;2022-12-01T05:31:31;48.33;;;20.42;;
55461;SDS011;41327;45.102;20.624;2022-12-01T05:33:57;37.47;;;15.60;;
55461;SDS011;41327;45.102;20.624;2022-12-01T05:36:22;27.65;;;12.63;;
55461;SDS011;41327;45.102;20.624;2022-12-01T05:38:48;20.65;;;10.35;;
55461;SDS011;41327;45.102;20.624;2022-12-01T05:41:13;21.25;;;11.63;;
55461;SDS011;41327;45.102;20.624;2022-12-01T05:43:39;19.85;;;10.88;;
55461;SDS011;41327;45.102;20.624;2022-12-01T05:46:04;25.23;;;13.55;;
55461;SDS011;41327;45.102;20.624;2022-12-01T05:48:30;20.27;;;10.70;;
55461;SDS011;41327;45.102;20.624;2022-12-01T05:50:55;21.60;;;11.00;;
55461;SDS011;41327;45.102;20.624;2022-12-01T05:53:21;23.60;;;11.68;;
55461;SDS011;41327;45.102;20.624;2022-12-01T05:55:50;23.65;;;10.80;;
55461;SDS011;41327;45.102;20.624;2022-12-01T05:58:17;24.23;;;11.85;;
55461;SDS011;41327;45.102;20.624;2022-12-01T06:00:42;20.48;;;10.45;;
55461;SDS011;41327;45.102;20.624;2022-12-01T06:03:08;22.67;;;12.55;;
55461;SDS011;41327;45.102;20.624;2022-12-01T06:05:33;24.77;;;12.75;;
55461;SDS011;41327;45.102;20.624;2022-12-01T06:07:59;26.38;;;13.10;;
55461;SDS011;41327;45.102;20.624;2022-12-01T06:10:25;24.98;;;12.88;;
55461;SDS011;41327;45.102;20.624;2022-12-01T06:12:51;42.25;;;16.70;;
55461;SDS011;41327;45.102;20.624;2022-12-01T06:15:16;27.27;;;14.20;;
55461;SDS011;41327;45.102;20.624;2022-12-01T06:17:42;32.65;;;15.18;;
55461;SDS011;41327;45.102;20.624;2022-12-01T06:20:08;31.05;;;14.52;;
55461;SDS011;41327;45.102;20.624;2022-12-01T06:22:34;31.25;;;15.45;;
55461;SDS011;41327;45.102;20.624;2022-12-01T06:24:59;28.83;;;14.15;;
55461;SDS011;41327;45.102;20.624;2022-12-01T06:27:25;23.30;;;12.20;;
55461;SDS011;41327;45.102;20.624;2022-12-01T06:29:51;22.50;;;12.43;;
55461;SDS011;41327;45.102;20.624;2022-12-01T06:32:16;22.58;;;11.35;;
55461;SDS011;41327;45.102;20.624;2022-12-01T06:34:42;23.75;;;10.82;;
55461;SDS011;41327;45.102;20.624;2022-12-01T06:37:08;23.85;;;12.30;;
55461;SDS011;41327;45.102;20.624;2022-12-01T06:39:34;21.98;;;11.68;;
55461;SDS011;41327;45.102;20.624;2022-12-01T06:42:00;19.75;;;11.20;;
55461;SDS011;41327;45.102;20.624;2022-12-01T06:44:26;19.52;;;10.07;;
55461;SDS011;41327;45.102;20.624;2022-12-01T06:46:51;18.20;;;9.57;;
55461;SDS011;41327;45.102;20.624;2022-12-01T06:49:17;22.77;;;11.35;;
55461;SDS011;41327;45.102;20.624;2022-12-01T06:51:43;19.15;;;10.55;;
55461;SDS011;41327;45.102;20.624;2022-12-01T06:54:11;29.48;;;14.73;;
55461;SDS011;41327;45.102;20.624;2022-12-01T06:56:39;38.60;;;18.25;;
55461;SDS011;41327;45.102;20.624;2022-12-01T06:59:06;43.95;;;22.13;;
55461;SDS011;41327;45.102;20.624;2022-12-01T07:01:31;40.35;;;21.92;;
55461;SDS011;41327;45.102;20.624;2022-12-01T07:03:57;43.83;;;23.88;;
55461;SDS011;41327;45.102;20.624;2022-12-01T07:06:22;45.38;;;24.60;;
55461;SDS011;41327;45.102;20.624;2022-12-01T07:08:48;57.20;;;27.42;;
55461;SDS011;41327;45.102;20.624;2022-12-01T07:11:14;61.42;;;29.05;;
55461;SDS011;41327;45.102;20.624;2022-12-01T07:13:41;48.08;;;25.55;;
55461;SDS011;41327;45.102;20.624;2022-12-01T07:16:09;49.78;;;27.55;;
55461;SDS011;41327;45.102;20.624;2022-12-01T07:18:35;64.57;;;28.40;;
55461;SDS011;41327;45.102;20.624;2022-12-01T07:21:04;54.17;;;27.83;;
55461;SDS011;41327;45.102;20.624;2022-12-01T07:23:31;47.28;;;22.92;;
55461;SDS011;41327;45.102;20.624;2022-12-01T07:26:16;42.65;;;21.38;;
55461;SDS011;41327;45.102;20.624;2022-12-01T07:28:42;36.97;;;19.73;;
55461;SDS011;41327;45.102;20.624;2022-12-01T07:31:10;35.55;;;19.65;;
55461;SDS011;41327;45.102;20.624;2022-12-01T07:33:37;36.25;;;17.17;;
55461;SDS011;41327;45.102;20.624;2022-12-01T07:36:03;32.78;;;17.20;;
55461;SDS011;41327;45.102;20.624;2022-12-01T07:38:30;35.95;;;18.00;;
55461;SDS011;41327;45.102;20.624;2022-12-01T07:41:06;49.33;;;18.73;;
55461;SDS011;41327;45.102;20.624;2022-12-01T07:43:33;26.73;;;16.38;;
55461;SDS011;41327;45.102;20.624;2022-12-01T07:46:17;39.58;;;19.98;;
55461;SDS011;41327;45.102;20.624;2022-12-01T07:48:44;34.83;;;19.83;;
55461;SDS011;41327;45.102;20.624;2022-12-01T07:51:11;28.58;;;16.95;;
55461;SDS011;41327;45.102;20.624;2022-12-01T07:53:40;31.58;;;16.38;;
55461;SDS011;41327;45.102;20.624;2022-12-01T07:56:05;28.67;;;15.15;;
55461;SDS011;41327;45.102;20.624;2022-12-01T07:58:31;32.60;;;15.50;;
55461;SDS011;41327;45.102;20.624;2022-12-01T08:01:03;33.03;;;16.38;;
55461;SDS011;41327;45.102;20.624;2022-12-01T08:03:31;35.08;;;18.77;;
55461;SDS011;41327;45.102;20.624;2022-12-01T08:05:59;34.72;;;18.55;;
55461;SDS011;41327;45.102;20.624;2022-12-01T08:08:26;23.42;;;12.18;;
55461;SDS011;41327;45.102;20.624;2022-12-01T08:10:52;31.30;;;16.52;;
55461;SDS011;41327;45.102;20.624;2022-12-01T08:13:19;35.05;;;16.40;;
55461;SDS011;41327;45.102;20.624;2022-12-01T08:15:45;44.00;;;21.92;;
55461;SDS011;41327;45.102;20.624;2022-12-01T08:18:11;49.67;;;23.92;;
55461;SDS011;41327;45.102;20.624;2022-12-01T08:20:36;105.53;;;44.85;;
55461;SDS011;41327;45.102;20.624;2022-12-01T08:23:02;59.15;;;30.35;;
55461;SDS011;41327;45.102;20.624;2022-12-01T08:25:28;51.25;;;28.13;;
55461;SDS011;41327;45.102;20.624;2022-12-01T08:27:54;49.53;;;27.40;;
55461;SDS011;41327;45.102;20.624;2022-12-01T08:30:20;83.78;;;40.40;;
55461;SDS011;41327;45.102;20.624;2022-12-01T08:32:46;123.78;;;55.53;;
55461;SDS011;41327;45.102;20.624;2022-12-01T08:35:11;97.65;;;48.30;;
55461;SDS011;41327;45.102;20.624;2022-12-01T08:37:37;123.43;;;55.78;;
55461;SDS011;41327;45.102;20.624;2022-12-01T08:40:02;84.68;;;40.08;;
55461;SDS011;41327;45.102;20.624;2022-12-01T08:42:28;60.35;;;28.85;;
55461;SDS011;41327;45.102;20.624;2022-12-01T08:44:54;69.32;;;35.45;;
55461;SDS011;41327;45.102;20.624;2022-12-01T08:47:20;90.47;;;45.75;;
55461;SDS011;41327;45.102;20.624;2022-12-01T08:49:45;81.43;;;40.65;;
55461;SDS011;41327;45.102;20.624;2022-12-01T08:52:11;55.40;;;30.40;;
55461;SDS011;41327;45.102;20.624;2022-12-01T08:54:36;68.80;;;35.47;;
55461;SDS011;41327;45.102;20.624;2022-12-01T08:57:02;46.50;;;22.33;;
55461;SDS011;41327;45.102;20.624;2022-12-01T08:59:28;19.17;;;10.52;;
55461;SDS011;41327;45.102;20.624;2022-12-01T09:01:53;45.55;;;22.70;;
55461;SDS011;41327;45.102;20.624;2022-12-01T09:04:20;21.40;;;12.60;;
55461;SDS011;41327;45.102;20.624;2022-12-01T09:06:47;12.43;;;6.40;;
55461;SDS011;41327;45.102;20.624;2022-12-01T09:09:16;8.57;;;4.32;;
55461;SDS011;41327;45.102;20.624;2022-12-01T09:11:47;7.72;;;3.80;;
55461;SDS011;41327;45.102;20.624;2022-12-01T09:14:15;9.05;;;4.38;;
55461;SDS011;41327;45.102;20.624;2022-12-01T09:16:41;5.32;;;2.40;;
55461;SDS011;41327;45.102;20.624;2022-12-01T09:19:08;1.80;;;1.23;;
55461;SDS011;41327;45.102;20.624;2022-12-01T09:21:35;2.15;;;1.25;;
55461;SDS011;41327;45.102;20.624;2022-12-01T09:24:03;4.32;;;1.95;;
55461;SDS011;41327;45.102;20.624;2022-12-01T09:26:31;3.42;;;1.60;;
55461;SDS011;41327;45.102;20.624;2022-12-01T09:29:02;3.50;;;1.15;;
55461;SDS011;41327;45.102;20.624;2022-12-01T09:31:29;1.38;;;1.05;;
55461;SDS011;41327;45.102;20.624;2022-12-01T09:33:57;2.50;;;1.38;;
55461;SDS011;41327;45.102;20.624;2022-12-01T09:36:27;4.45;;;2.70;;
55461;SDS011;41327;45.102;20.624;2022-12-01T09:38:54;1.67;;;1.10;;
55461;SDS011;41327;45.102;20.624;2022-12-01T09:41:23;2.85;;;1.25;;
55461;SDS011;41327;45.102;20.624;2022-12-01T09:46:42;1.83;;;1.23;;
55461;SDS011;41327;45.102;20.624;2022-12-01T09:49:18;2.40;;;1.35;;
55461;SDS011;41327;45.102;20.624;2022-12-01T09:51:47;1.95;;;1.17;;
55461;SDS011;41327;45.102;20.624;2022-12-01T09:54:15;1.52;;;1.00;;
55461;SDS011;41327;45.102;20.624;2022-12-01T09:56:42;3.13;;;1.00;;
55461;SDS011;41327;45.102;20.624;2022-12-01T09:59:18;1.92;;;0.70;;
55461;SDS011;41327;45.102;20.624;2022-12-01T10:01:47;1.05;;;0.70;;
55461;SDS011;41327;45.102;20.624;2022-12-01T10:04:17;1.38;;;0.82;;
55461;SDS011;41327;45.102;20.624;2022-12-01T10:11:42;1.20;;;1.10;;
55461;SDS011;41327;45.102;20.624;2022-12-01T10:14:13;1.15;;;0.80;;
55461;SDS011;41327;45.102;20.624;2022-12-01T10:19:21;1.17;;;0.90;;
55461;SDS011;41327;45.102;20.624;2022-12-01T10:24:51;1.92;;;1.08;;
55461;SDS011;41327;45.102;20.624;2022-12-01T10:27:32;1.83;;;0.90;;
55461;SDS011;41327;45.102;20.624;2022-12-01T10:30:16;1.20;;;0.80;;
55461;SDS011;41327;45.102;20.624;2022-12-01T10:32:53;1.95;;;1.00;;
55461;SDS011;41327;45.102;20.624;2022-12-01T10:35:25;6.00;;;1.88;;
55461;SDS011;41327;45.102;20.624;2022-12-01T10:37:57;1.52;;;1.10;;
55461;SDS011;41327;45.102;20.624;2022-12-01T10:40:24;2.38;;;1.33;;
55461;SDS011;41327;45.102;20.624;2022-12-01T10:42:51;1.42;;;1.10;;
55461;SDS011;41327;45.102;20.624;2022-12-01T10:45:27;1.27;;;1.00;;
55461;SDS011;41327;45.102;20.624;2022-12-01T10:48:17;1.75;;;1.15;;
55461;SDS011;41327;45.102;20.624;2022-12-01T10:50:45;3.90;;;1.33;;
55461;SDS011;41327;45.102;20.624;2022-12-01T10:58:14;2.22;;;1.27;;
55461;SDS011;41327;45.102;20.624;2022-12-01T11:00:41;2.42;;;1.15;;
55461;SDS011;41327;45.102;20.624;2022-12-01T11:03:19;6.05;;;1.40;;
55461;SDS011;41327;45.102;20.624;2022-12-01T11:05:49;5.45;;;1.65;;
55461;SDS011;41327;45.102;20.624;2022-12-01T11:08:42;1.95;;;1.23;;
55461;SDS011;41327;45.102;20.624;2022-12-01T11:14:05;2.55;;;1.88;;
55461;SDS011;41327;45.102;20.624;2022-12-01T11:16:41;2.75;;;1.90;;
55461;SDS011;41327;45.102;20.624;2022-12-01T11:27:20;2.97;;;2.28;;
55461;SDS011;41327;45.102;20.624;2022-12-01T11:29:47;2.80;;;2.20;;
55461;SDS011;41327;45.102;20.624;2022-12-01T11:32:28;3.95;;;2.53;;
55461;SDS011;41327;45.102;20.624;2022-12-01T11:34:56;3.88;;;2.40;;
55461;SDS011;41327;45.102;20.624;2022-12-01T11:37:30;3.70;;;2.40;;
55461;SDS011;41327;45.102;20.624;2022-12-01T11:40:28;3.97;;;2.40;;
55461;SDS011;41327;45.102;20.624;2022-12-01T11:42:59;4.03;;;2.42;;
55461;SDS011;41327;45.102;20.624;2022-12-01T11:45:28;3.85;;;2.35;;
55461;SDS011;41327;45.102;20.624;2022-12-01T11:47:59;3.45;;;2.60;;
55461;SDS011;41327;45.102;20.624;2022-12-01T11:50:32;5.13;;;3.05;;
55461;SDS011;41327;45.102;20.624;2022-12-01T11:52:59;4.05;;;2.20;;
55461;SDS011;41327;45.102;20.624;2022-12-01T11:55:26;3.25;;;2.10;;
55461;SDS011;41327;45.102;20.624;2022-12-01T11:57:58;6.68;;;3.63;;
55461;SDS011;41327;45.102;20.624;2022-12-01T12:00:26;3.22;;;2.50;;
55461;SDS011;41327;45.102;20.624;2022-12-01T12:03:00;2.83;;;2.47;;
55461;SDS011;41327;45.102;20.624;2022-12-01T12:05:43;4.93;;;2.53;;
55461;SDS011;41327;45.102;20.624;2022-12-01T12:24:00;6.80;;;3.80;;
55461;SDS011;41327;45.102;20.624;2022-12-01T12:26:28;9.80;;;5.57;;
55461;SDS011;41327;45.102;20.624;2022-12-01T12:29:16;8.18;;;3.30;;
55461;SDS011;41327;45.102;20.624;2022-12-01T12:31:56;13.60;;;6.63;;
55461;SDS011;41327;45.102;20.624;2022-12-01T12:40:35;8.98;;;3.70;;
55461;SDS011;41327;45.102;20.624;2022-12-01T12:46:57;23.83;;;10.20;;
55461;SDS011;41327;45.102;20.624;2022-12-01T12:52:15;6.63;;;3.50;;
55461;SDS011;41327;45.102;20.624;2022-12-01T12:59:58;6.00;;;3.58;;
55461;SDS011;41327;45.102;20.624;2022-12-01T13:02:45;9.05;;;3.75;;
55461;SDS011;41327;45.102;20.624;2022-12-01T13:05:17;11.52;;;4.78;;
55461;SDS011;41327;45.102;20.624;2022-12-01T13:07:49;8.35;;;3.45;;
55461;SDS011;41327;45.102;20.624;2022-12-01T13:10:39;5.55;;;3.40;;
55461;SDS011;41327;45.102;20.624;2022-12-01T13:16:05;5.50;;;3.30;;
55461;SDS011;41327;45.102;20.624;2022-12-01T13:21:28;6.25;;;3.42;;
55461;SDS011;41327;45.102;20.624;2022-12-01T13:23:59;5.47;;;3.63;;
55461;SDS011;41327;45.102;20.624;2022-12-01T13:26:24;8.70;;;4.50;;
55461;SDS011;41327;45.102;20.624;2022-12-01T13:28:51;10.32;;;5.43;;
55461;SDS011;41327;45.102;20.624;2022-12-01T13:31:19;7.10;;;4.13;;
55461;SDS011;41327;45.102;20.624;2022-12-01T13:33:58;11.65;;;5.28;;
55461;SDS011;41327;45.102;20.624;2022-12-01T13:36:25;10.07;;;4.55;;
55461;SDS011;41327;45.102;20.624;2022-12-01T13:39:37;7.90;;;4.60;;
55461;SDS011;41327;45.102;20.624;2022-12-01T13:41:44;7.35;;;4.90;;
55461;SDS011;41327;45.102;20.624;2022-12-01T13:49:35;8.27;;;5.30;;
55461;SDS011;41327;45.102;20.624;2022-12-01T13:57:27;11.05;;;6.97;;
55461;SDS011;41327;45.102;20.624;2022-12-01T14:02:24;10.48;;;5.35;;
55461;SDS011;41327;45.102;20.624;2022-12-01T14:04:51;12.25;;;5.82;;
55461;SDS011;41327;45.102;20.624;2022-12-01T14:07:34;8.68;;;4.93;;
55461;SDS011;41327;45.102;20.624;2022-12-01T14:10:33;9.88;;;5.05;;
55461;SDS011;41327;45.102;20.624;2022-12-01T14:12:54;9.20;;;4.90;;
55461;SDS011;41327;45.102;20.624;2022-12-01T14:15:30;9.05;;;5.28;;
55461;SDS011;41327;45.102;20.624;2022-12-01T14:18:47;11.77;;;6.03;;
55461;SDS011;41327;45.102;20.624;2022-12-01T14:21:03;9.13;;;5.65;;
55461;SDS011;41327;45.102;20.624;2022-12-01T14:23:34;9.45;;;5.53;;
55461;SDS011;41327;45.102;20.624;2022-12-01T14:33:59;9.35;;;5.25;;
55461;SDS011;41327;45.102;20.624;2022-12-01T14:36:39;11.93;;;6.63;;
55461;SDS011;41327;45.102;20.624;2022-12-01T14:39:11;12.00;;;6.47;;
55461;SDS011;41327;45.102;20.624;2022-12-01T14:44:23;12.32;;;6.40;;
55461;SDS011;41327;45.102;20.624;2022-12-01T14:49:55;12.90;;;6.90;;
55461;SDS011;41327;45.102;20.624;2022-12-01T14:54:59;29.48;;;12.52;;
55461;SDS011;41327;45.102;20.624;2022-12-01T14:57:30;18.13;;;8.77;;
55461;SDS011;41327;45.102;20.624;2022-12-01T15:02:42;11.55;;;6.32;;
55461;SDS011;41327;45.102;20.624;2022-12-01T15:05:12;12.10;;;6.45;;
55461;SDS011;41327;45.102;20.624;2022-12-01T15:07:41;13.52;;;7.18;;
55461;SDS011;41327;45.102;20.624;2022-12-01T15:10:16;22.67;;;8.88;;
55461;SDS011;41327;45.102;20.624;2022-12-01T15:12:41;26.10;;;11.20;;
55461;SDS011;41327;45.102;20.624;2022-12-01T15:17:48;19.20;;;8.75;;
55461;SDS011;41327;45.102;20.624;2022-12-01T15:22:58;28.30;;;10.68;;
55461;SDS011;41327;45.102;20.624;2022-12-01T15:25:24;27.88;;;10.73;;
55461;SDS011;41327;45.102;20.624;2022-12-01T15:28:02;24.50;;;11.43;;
55461;SDS011;41327;45.102;20.624;2022-12-01T15:30:49;31.00;;;13.00;;
55461;SDS011;41327;45.102;20.624;2022-12-01T15:33:24;21.35;;;8.50;;
55461;SDS011;41327;45.102;20.624;2022-12-01T15:35:53;22.67;;;10.38;;
55461;SDS011;41327;45.102;20.624;2022-12-01T15:38:24;29.13;;;12.27;;
55461;SDS011;41327;45.102;20.624;2022-12-01T15:40:52;30.10;;;13.25;;
55461;SDS011;41327;45.102;20.624;2022-12-01T15:44:20;27.83;;;11.35;;
55461;SDS011;41327;45.102;20.624;2022-12-01T15:46:25;13.77;;;6.97;;
55461;SDS011;41327;45.102;20.624;2022-12-01T15:49:04;15.23;;;7.55;;
55461;SDS011;41327;45.102;20.624;2022-12-01T15:51:40;15.35;;;7.55;;
55461;SDS011;41327;45.102;20.624;2022-12-01T15:54:11;11.65;;;6.68;;
55461;SDS011;41327;45.102;20.624;2022-12-01T15:56:44;11.88;;;6.30;;
55461;SDS011;41327;45.102;20.624;2022-12-01T16:01:42;10.43;;;6.18;;
55461;SDS011;41327;45.102;20.624;2022-12-01T16:07:06;12.48;;;6.10;;
55461;SDS011;41327;45.102;20.624;2022-12-01T16:09:36;12.93;;;5.90;;
55461;SDS011;41327;45.102;20.624;2022-12-01T16:14:54;13.32;;;6.45;;
55461;SDS011;41327;45.102;20.624;2022-12-01T16:17:49;12.70;;;7.35;;
55461;SDS011;41327;45.102;20.624;2022-12-01T16:20:29;11.25;;;6.20;;
55461;SDS011;41327;45.102;20.624;2022-12-01T16:23:19;15.27;;;7.47;;
55461;SDS011;41327;45.102;20.624;2022-12-01T16:25:47;11.52;;;5.97;;
55461;SDS011;41327;45.102;20.624;2022-12-01T16:28:32;19.95;;;7.57;;
55461;SDS011;41327;45.102;20.624;2022-12-01T16:31:02;12.77;;;7.40;;
55461;SDS011;41327;45.102;20.624;2022-12-01T16:33:28;13.18;;;6.72;;
55461;SDS011;41327;45.102;20.624;2022-12-01T16:35:57;12.45;;;7.15;;
55461;SDS011;41327;45.102;20.624;2022-12-01T16:38:23;12.85;;;6.95;;
55461;SDS011;41327;45.102;20.624;2022-12-01T16:40:51;12.48;;;6.65;;
55461;SDS011;41327;45.102;20.624;2022-12-01T16:43:21;13.82;;;6.85;;
55461;SDS011;41327;45.102;20.624;2022-12-01T16:45:48;13.30;;;6.95;;
55461;SDS011;41327;45.102;20.624;2022-12-01T16:48:19;15.13;;;6.85;;
55461;SDS011;41327;45.102;20.624;2022-12-01T16:50:45;12.13;;;6.65;;
55461;SDS011;41327;45.102;20.624;2022-12-01T16:53:14;13.52;;;7.45;;
55461;SDS011;41327;45.102;20.624;2022-12-01T16:58:06;15.63;;;7.30;;
55461;SDS011;41327;45.102;20.624;2022-12-01T17:00:32;14.63;;;7.50;;
55461;SDS011;41327;45.102;20.624;2022-12-01T17:02:57;17.10;;;6.85;;
55461;SDS011;41327;45.102;20.624;2022-12-01T17:05:23;15.23;;;7.93;;
55461;SDS011;41327;45.102;20.624;2022-12-01T17:07:49;13.90;;;7.15;;
55461;SDS011;41327;45.102;20.624;2022-12-01T17:10:15;13.10;;;7.43;;
55461;SDS011;41327;45.102;20.624;2022-12-01T17:12:41;15.60;;;7.75;;